Time;durP1;ratioP1;P1;durP2;ratioP2;P2;SDS_P1;SDS_P2;PMS_P1;PMS_P2;Temp;Humidity;BMP_temperature;BMP_pressure;BME280_temperature;BME280_humidity;BME280_pressure;Samples;Min_cycle;Max_cycle;Signal;HPM_P1;HPM_P2
2022/08/27 06:05:15;;;;;;;5.90;1.60;;;;;;;;;;10547213;28;20511;-82
2022/08/27 06:10:16;;;;;;;3.85;1.50;;;;;;;;;;10546249;28;20024;-83
2022/08/27 06:15:17;;;;;;;5.45;1.40;;;;;;;;;;10544598;28;20078;-80
2022/08/27 06:20:19;;;;;;;3.83;1.40;;;;;;;;;;10540725;28;20123;-81
2022/08/27 06:25:20;;;;;;;4.80;1.48;;;;;;;;;;10518030;28;20036;-81
2022/08/27 06:30:23;;;;;;;9.73;1.75;;;;;;;;;;10499153;28;20048;-81
2022/08/27 06:35:24;;;;;;;4.25;1.63;;;;;;;;;;10500610;28;20044;-82
2022/08/27 06:40:25;;;;;;;5.70;1.60;;;;;;;;;;10508611;28;20029;-83
2022/08/27 06:45:26;;;;;;;4.38;1.70;;;;;;;;;;10509947;28;20082;-80
2022/08/27 06:50:29;;;;;;;6.25;1.65;;;;;;;;;;10498448;28;20451;-80
2022/08/27 06:55:30;;;;;;;4.07;1.55;;;;;;;;;;10528038;28;20128;-82
2022/08/27 07:00:31;;;;;;;2.80;1.58;;;;;;;;;;10542436;28;20470;-81
2022/08/27 07:05:33;;;;;;;4.80;2.65;;;;;;;;;;10540816;28;20071;-83
2022/08/27 07:10:34;;;;;;;7.25;2.88;;;;;;;;;;10521249;28;20392;-85
2022/08/27 07:15:38;;;;;;;3.90;2.08;;;;;;;;;;10516162;28;20032;-85
2022/08/27 07:20:40;;;;;;;4.47;2.20;;;;;;;;;;10517363;28;20024;-85
2022/08/27 07:25:42;;;;;;;3.92;2.42;;;;;;;;;;10516049;28;20557;-83
2022/08/27 07:30:43;;;;;;;4.25;2.90;;;;;;;;;;10514089;28;20033;-83
2022/08/27 07:35:47;;;;;;;5.93;2.42;;;;;;;;;;10513625;28;20108;-85
2022/08/27 07:40:51;;;;;;;3.75;2.88;;;;;;;;;;10511893;28;20055;-85
2022/08/27 07:45:55;;;;;;;5.05;2.53;;;;;;;;;;10514284;28;20024;-84
2022/08/27 07:50:57;;;;;;;7.32;2.50;;;;;;;;;;10511979;28;20021;-85
2022/08/27 07:56:02;;;;;;;6.88;2.60;;;;;;;;;;10512612;28;20033;-82
2022/08/27 08:01:03;;;;;;;3.83;2.10;;;;;;;;;;10518943;28;20021;-84
2022/08/27 08:06:06;;;;;;;7.03;2.78;;;;;;;;;;10515887;28;20036;-83
2022/08/27 08:11:11;;;;;;;7.35;2.83;;;;;;;;;;10513980;28;20032;-84
2022/08/27 08:16:12;;;;;;;8.43;3.25;;;;;;;;;;10515701;28;20027;-83
2022/08/27 08:21:14;;;;;;;16.40;12.05;;;;;;;;;;10513668;28;20024;-84
2022/08/27 08:26:15;;;;;;;12.07;7.72;;;;;;;;;;10515606;28;20139;-82
2022/08/27 08:31:16;;;;;;;7.30;4.03;;;;;;;;;;10515223;28;20020;-82
2022/08/27 08:36:17;;;;;;;10.70;6.75;;;;;;;;;;10496922;28;20120;-84
2022/08/27 08:41:39;;;;;;;5.82;4.03;;;;;;;;;;10505232;28;20036;-84
2022/08/27 08:46:52;;;;;;;5.35;3.42;;;;;;;;;;10507373;28;20084;-83
2022/08/27 08:51:55;;;;;;;7.55;3.50;;;;;;;;;;10509000;28;20112;-84
2022/08/27 08:56:56;;;;;;;5.97;1.95;;;;;;;;;;10505342;28;20101;-83
2022/08/27 09:01:57;;;;;;;4.68;2.80;;;;;;;;;;10509143;28;20062;-82
2022/08/27 09:07:07;;;;;;;4.60;2.50;;;;;;;;;;10508612;28;20025;-82
2022/08/27 09:12:13;;;;;;;6.22;2.47;;;;;;;;;;10509664;28;20055;-82
2022/08/27 09:17:15;;;;;;;7.55;2.60;;;;;;;;;;10509665;28;20114;-85
2022/08/27 09:22:16;;;;;;;4.47;2.78;;;;;;;;;;10510697;28;20070;-81
2022/08/27 09:27:19;;;;;;;4.22;2.10;;;;;;;;;;10510906;28;20036;-82
2022/08/27 09:32:30;;;;;;;6.90;2.55;;;;;;;;;;10509235;28;20086;-83
2022/08/27 09:37:32;;;;;;;6.70;2.67;;;;;;;;;;10509829;28;20094;-83
2022/08/27 09:42:48;;;;;;;4.40;2.45;;;;;;;;;;10508125;28;20422;-84
2022/08/27 09:47:50;;;;;;;5.30;1.70;;;;;;;;;;10511247;28;20024;-83
2022/08/27 09:52:57;;;;;;;7.38;1.67;;;;;;;;;;10526157;28;20107;-82
2022/08/27 09:58:01;;;;;;;3.85;1.80;;;;;;;;;;10517710;28;20037;-84
2022/08/27 10:03:02;;;;;;;5.07;1.70;;;;;;;;;;10506252;28;20031;-84
2022/08/27 10:08:12;;;;;;;5.80;2.00;;;;;;;;;;10508059;28;20391;-84
2022/08/27 10:13:16;;;;;;;4.45;3.40;;;;;;;;;;10507008;28;20055;-82
2022/08/27 10:18:20;;;;;;;4.60;2.55;;;;;;;;;;10506826;28;20075;-84
2022/08/27 10:23:37;;;;;;;3.95;2.40;;;;;;;;;;10504686;28;20071;-83
2022/08/27 10:29:19;;;;;;;8.45;1.88;;;;;;;;;;10500843;28;20194;-82
2022/08/27 10:34:44;;;;;;;3.17;1.65;;;;;;;;;;10504477;28;20028;-85
2022/08/27 10:39:51;;;;;;;3.60;1.40;;;;;;;;;;10514038;28;20024;-84
2022/08/27 10:45:04;;;;;;;3.47;1.52;;;;;;;;;;10508890;28;20475;-83
2022/08/27 10:50:31;;;;;;;4.55;1.55;;;;;;;;;;10514468;28;20051;-85
2022/08/27 10:55:58;;;;;;;4.30;2.10;;;;;;;;;;10512407;28;20036;-86
2022/08/27 11:01:06;;;;;;;4.97;1.92;;;;;;;;;;10513226;28;20032;-85
2022/08/27 11:06:36;;;;;;;2.83;1.80;;;;;;;;;;10513814;28;20024;-84
2022/08/27 11:12:10;;;;;;;3.22;1.63;;;;;;;;;;10512447;28;20096;-84
2022/08/27 11:17:15;;;;;;;4.55;1.70;;;;;;;;;;10503160;28;20052;-84
2022/08/27 11:22:21;;;;;;;5.72;1.70;;;;;;;;;;10513110;28;20027;-86
2022/08/27 11:27:26;;;;;;;5.90;1.52;;;;;;;;;;10511033;28;20036;-84
2022/08/27 11:32:56;;;;;;;5.63;2.35;;;;;;;;;;10513186;28;20032;-84
2022/08/27 11:37:57;;;;;;;4.28;2.85;;;;;;;;;;10514469;28;20390;-83
2022/08/27 11:43:13;;;;;;;6.15;3.85;;;;;;;;;;10514503;28;20017;-86
2022/08/27 11:48:21;;;;;;;6.43;3.33;;;;;;;;;;10521891;28;20032;-84
2022/08/27 11:53:31;;;;;;;4.93;2.30;;;;;;;;;;10520453;28;20059;-85
2022/08/27 11:58:37;;;;;;;3.72;1.58;;;;;;;;;;10513408;28;20128;-81
2022/08/27 12:03:39;;;;;;;4.03;2.90;;;;;;;;;;10513669;28;20029;-82
2022/08/27 12:08:52;;;;;;;3.15;1.60;;;;;;;;;;10497277;28;20055;-80
2022/08/27 12:13:57;;;;;;;4.53;2.03;;;;;;;;;;10506087;28;20044;-79
2022/08/27 12:19:03;;;;;;;3.67;1.60;;;;;;;;;;10505523;28;20024;-79
2022/08/27 12:24:13;;;;;;;4.30;1.60;;;;;;;;;;10506572;28;20132;-79
2022/08/27 12:29:23;;;;;;;4.85;1.80;;;;;;;;;;10507008;28;20024;-79
2022/08/27 12:34:25;;;;;;;2.92;1.90;;;;;;;;;;10506292;28;20486;-79
2022/08/27 12:39:28;;;;;;;2.63;1.50;;;;;;;;;;10504933;28;20067;-79
2022/08/27 12:44:30;;;;;;;3.50;1.70;;;;;;;;;;10507150;28;20017;-80
2022/08/27 12:49:36;;;;;;;8.98;6.38;;;;;;;;;;10506547;28;20025;-80
2022/08/27 12:54:46;;;;;;;4.28;1.92;;;;;;;;;;10504183;28;20027;-80
2022/08/27 12:59:50;;;;;;;3.92;2.03;;;;;;;;;;10505207;28;20113;-80
2022/08/27 13:04:51;;;;;;;2.90;1.60;;;;;;;;;;10502919;28;20497;-80
2022/08/27 13:09:52;;;;;;;2.35;1.27;;;;;;;;;;10503603;28;20024;-80
2022/08/27 13:14:53;;;;;;;3.05;1.50;;;;;;;;;;10503253;28;20118;-79
2022/08/27 13:19:58;;;;;;;2.35;1.20;;;;;;;;;;10505729;28;20039;-80
2022/08/27 13:24:59;;;;;;;3.67;2.25;;;;;;;;;;10504277;28;20075;-80
2022/08/27 13:30:10;;;;;;;3.40;1.60;;;;;;;;;;10504161;28;20035;-79
2022/08/27 13:35:12;;;;;;;2.88;1.60;;;;;;;;;;10503610;28;20120;-79
2022/08/27 13:40:42;;;;;;;3.08;1.70;;;;;;;;;;10503106;28;20500;-79
2022/08/27 13:45:47;;;;;;;4.25;2.28;;;;;;;;;;10494138;28;20574;-79
2022/08/27 13:50:50;;;;;;;2.72;1.83;;;;;;;;;;10501785;28;20029;-80
2022/08/27 13:55:52;;;;;;;2.60;1.60;;;;;;;;;;10501126;28;20066;-80
2022/08/27 14:00:54;;;;;;;2.72;1.60;;;;;;;;;;10501011;28;20025;-79
2022/08/27 14:05:56;;;;;;;2.75;1.70;;;;;;;;;;10501496;28;20074;-79
2022/08/27 14:11:00;;;;;;;5.55;4.00;;;;;;;;;;10501658;28;20032;-79
2022/08/27 14:16:11;;;;;;;3.42;1.80;;;;;;;;;;10502299;28;20108;-79
2022/08/27 14:21:12;;;;;;;2.88;1.35;;;;;;;;;;10509324;28;20029;-79
2022/08/27 14:26:15;;;;;;;2.85;1.60;;;;;;;;;;10510944;28;20045;-79
2022/08/27 14:31:17;;;;;;;3.38;1.60;;;;;;;;;;10514429;28;20040;-79
2022/08/27 14:36:18;;;;;;;2.60;1.42;;;;;;;;;;10509366;28;20020;-79
2022/08/27 14:41:20;;;;;;;3.47;1.33;;;;;;;;;;10508962;28;20016;-80
2022/08/27 14:46:23;;;;;;;3.05;1.70;;;;;;;;;;10508818;28;20024;-80
2022/08/27 14:51:26;;;;;;;5.20;1.80;;;;;;;;;;10508341;28;20021;-80
2022/08/27 14:56:27;;;;;;;1.60;1.08;;;;;;;;;;10509731;28;20040;-80
2022/08/27 15:01:28;;;;;;;1.70;1.30;;;;;;;;;;10509641;28;20107;-80
2022/08/27 15:06:29;;;;;;;2.88;1.58;;;;;;;;;;10509022;28;20020;-80
2022/08/27 15:11:31;;;;;;;2.38;1.50;;;;;;;;;;10509865;28;20027;-80
2022/08/27 15:16:34;;;;;;;2.78;1.50;;;;;;;;;;10510538;28;20127;-80
2022/08/27 15:21:36;;;;;;;2.78;1.38;;;;;;;;;;10511044;28;20021;-80
2022/08/27 15:26:37;;;;;;;5.82;3.08;;;;;;;;;;10510941;28;20037;-80
2022/08/27 15:31:38;;;;;;;3.10;1.30;;;;;;;;;;10514000;28;20056;-80
2022/08/27 15:36:40;;;;;;;2.47;1.33;;;;;;;;;;10512233;28;20059;-79
2022/08/27 15:41:41;;;;;;;3.88;1.60;;;;;;;;;;10508286;28;20021;-79
2022/08/27 15:46:42;;;;;;;2.72;1.20;;;;;;;;;;10509348;28;20402;-78
2022/08/27 15:51:45;;;;;;;3.90;1.52;;;;;;;;;;10506281;28;20478;-79
2022/08/27 15:56:46;;;;;;;4.25;1.50;;;;;;;;;;10506481;28;20025;-78
2022/08/27 16:01:47;;;;;;;2.65;1.48;;;;;;;;;;10507957;28;20539;-78
2022/08/27 16:06:48;;;;;;;4.30;1.63;;;;;;;;;;10506896;28;20107;-79
2022/08/27 16:11:49;;;;;;;5.93;1.98;;;;;;;;;;10505752;28;20368;-79
2022/08/27 16:16:50;;;;;;;3.65;2.15;;;;;;;;;;10504914;28;20024;-79
2022/08/27 16:21:52;;;;;;;4.30;2.05;;;;;;;;;;10505067;28;20111;-79
2022/08/27 16:26:53;;;;;;;3.67;1.65;;;;;;;;;;10506674;28;20035;-79
2022/08/27 16:31:54;;;;;;;3.25;1.33;;;;;;;;;;10516396;28;20029;-79
2022/08/27 16:36:56;;;;;;;3.97;1.70;;;;;;;;;;10504355;28;20024;-79
2022/08/27 16:41:57;;;;;;;5.20;1.67;;;;;;;;;;10501533;28;20028;-79
2022/08/27 16:46:58;;;;;;;3.60;1.55;;;;;;;;;;10503857;28;20050;-79
2022/08/27 16:51:59;;;;;;;7.40;3.53;;;;;;;;;;10503625;28;20515;-79
2022/08/27 16:57:00;;;;;;;3.72;1.92;;;;;;;;;;10502756;28;20028;-80
2022/08/27 17:02:01;;;;;;;3.30;2.10;;;;;;;;;;10503564;28;20078;-79
2022/08/27 17:07:02;;;;;;;4.47;1.95;;;;;;;;;;10504262;28;20040;-80
2022/08/27 17:12:04;;;;;;;3.20;1.40;;;;;;;;;;10502953;28;20483;-80
2022/08/27 17:17:08;;;;;;;3.42;1.58;;;;;;;;;;10504221;28;20413;-80
2022/08/27 17:22:09;;;;;;;3.67;1.50;;;;;;;;;;10501436;28;20028;-80
2022/08/27 17:27:10;;;;;;;3.17;1.60;;;;;;;;;;10503847;28;20051;-79
2022/08/27 17:32:11;;;;;;;2.78;1.30;;;;;;;;;;10504546;28;20047;-80
2022/08/27 17:37:12;;;;;;;3.92;1.90;;;;;;;;;;10504387;28;20028;-80
2022/08/27 17:42:13;;;;;;;4.05;1.40;;;;;;;;;;10502179;28;20100;-80
2022/08/27 17:47:14;;;;;;;3.20;1.25;;;;;;;;;;10502488;28;20092;-79
2022/08/27 17:52:16;;;;;;;4.90;1.50;;;;;;;;;;10502928;28;20453;-81
2022/08/27 17:57:33;;;;;;;3.45;1.60;;;;;;;;;;10502303;28;20456;-79
2022/08/27 18:02:39;;;;;;;2.15;1.60;;;;;;;;;;10505097;28;20025;-81
2022/08/27 18:07:41;;;;;;;4.03;1.70;;;;;;;;;;10504911;28;20032;-79
2022/08/27 18:12:42;;;;;;;4.32;1.60;;;;;;;;;;10502953;28;20480;-79
2022/08/27 18:17:43;;;;;;;5.10;2.25;;;;;;;;;;10503080;28;20060;-79
2022/08/27 18:22:44;;;;;;;2.72;1.60;;;;;;;;;;10503935;28;20025;-79
2022/08/27 18:27:47;;;;;;;3.80;1.80;;;;;;;;;;10504531;28;20021;-79
2022/08/27 18:32:48;;;;;;;2.40;1.65;;;;;;;;;;10503066;28;20048;-78
2022/08/27 18:37:50;;;;;;;3.85;1.63;;;;;;;;;;10503779;28;20021;-79
2022/08/27 18:42:51;;;;;;;3.70;1.63;;;;;;;;;;10503761;28;20029;-78
2022/08/27 18:47:54;;;;;;;3.80;2.00;;;;;;;;;;10503996;28;20035;-78
2022/08/27 18:52:56;;;;;;;2.55;1.70;;;;;;;;;;10504957;28;20024;-81
2022/08/27 18:57:57;;;;;;;2.80;2.00;;;;;;;;;;10504646;28;20036;-79
2022/08/27 19:03:00;;;;;;;3.50;1.70;;;;;;;;;;10502860;28;20074;-79
2022/08/27 19:08:01;;;;;;;2.10;1.60;;;;;;;;;;10510199;28;20039;-79
2022/08/27 19:13:02;;;;;;;5.07;2.22;;;;;;;;;;10510018;28;20116;-79
2022/08/27 19:18:03;;;;;;;3.65;1.83;;;;;;;;;;10511147;28;20123;-79
2022/08/27 19:23:05;;;;;;;3.28;1.85;;;;;;;;;;10509420;28;20089;-79
